createdAt,value
2017-08-02T00:00:13.778Z,17.25
2017-08-02T00:01:13.752Z,17.21
2017-08-02T00:02:13.448Z,17.22
2017-08-02T00:03:13.414Z,17.24
2017-08-02T00:04:13.710Z,17.27
2017-08-02T00:05:13.676Z,17.21
2017-08-02T00:06:13.859Z,17.3
2017-08-02T00:07:13.636Z,17.28
2017-08-02T00:08:13.307Z,17.32
2017-08-02T00:09:13.844Z,17.35
2017-08-02T00:10:13.571Z,17.4
2017-08-02T00:11:13.553Z,17.39
2017-08-02T00:12:13.534Z,17.39
2017-08-02T00:13:13.506Z,17.4
2017-08-02T00:14:13.489Z,17.35
2017-08-02T00:15:13.518Z,17.33
2017-08-02T00:16:13.442Z,17.35
2017-08-02T00:17:13.430Z,17.36
2017-08-02T00:18:13.414Z,17.28
2017-08-02T00:19:13.639Z,17.32
2017-08-02T00:20:13.375Z,17.33
2017-08-02T00:21:13.349Z,17.27
2017-08-02T00:22:13.328Z,17.35
2017-08-02T00:23:13.319Z,17.32
2017-08-02T00:24:12.994Z,17.4
2017-08-02T00:25:13.278Z,17.43
2017-08-02T00:26:13.241Z,17.39
2017-08-02T00:27:13.228Z,17.32
2017-08-02T00:28:13.226Z,17.42
2017-08-02T00:29:12.881Z,17.43
2017-08-02T00:30:27.774Z,17.43
2017-08-02T00:31:13.148Z,17.4
2017-08-02T00:32:12.824Z,17.33
2017-08-02T00:33:12.852Z,17.38
2017-08-02T00:34:12.785Z,17.33
2017-08-02T00:35:13.062Z,17.28
2017-08-02T00:36:13.054Z,17.35
2017-08-02T00:37:12.420Z,17.36
2017-08-02T00:38:12.706Z,17.3
2017-08-02T00:39:12.979Z,17.36
2017-08-02T00:40:12.668Z,17.39
2017-08-02T00:41:12.945Z,17.36
2017-08-02T00:42:12.917Z,17.33
2017-08-02T00:43:12.906Z,17.27
2017-08-02T00:44:12.889Z,17.32
2017-08-02T00:45:12.858Z,17.27
2017-08-02T00:46:12.846Z,17.24
2017-08-02T00:47:12.824Z,17.17
2017-08-02T00:48:12.792Z,17.3
2017-08-02T00:49:12.779Z,17.22
2017-08-02T00:50:12.758Z,17.2
2017-08-02T00:51:12.739Z,17.21
2017-08-02T00:52:12.715Z,17.1
2017-08-02T00:53:12.399Z,17.15
2017-08-02T00:54:12.679Z,17.1
2017-08-02T00:55:12.699Z,17.14
2017-08-02T00:56:12.689Z,17.09
2017-08-02T00:57:12.622Z,17.07
2017-08-02T00:58:12.593Z,17.1
2017-08-02T00:59:12.271Z,17.1
2017-08-02T01:00:12.556Z,17.09
2017-08-02T01:01:12.232Z,17.09
2017-08-02T01:02:12.531Z,17.09
2017-08-02T01:03:12.190Z,17.09
2017-08-02T01:04:12.477Z,17.02
2017-08-02T01:05:12.460Z,16.98
2017-08-02T01:06:12.425Z,17.02
2017-08-02T01:07:12.413Z,16.96
2017-08-02T01:08:12.390Z,17
2017-08-02T01:09:12.376Z,16.99
2017-08-02T01:10:12.357Z,16.96
2017-08-02T01:11:12.021Z,16.95
2017-08-02T01:12:12.574Z,17
2017-08-02T01:13:12.278Z,16.92
2017-08-02T01:14:12.264Z,17
2017-08-02T01:15:11.952Z,17.02
2017-08-02T01:16:12.227Z,17
2017-08-02T01:17:12.209Z,17.02
2017-08-02T01:18:11.890Z,16.98
2017-08-02T01:19:12.169Z,17.05
2017-08-02T01:20:12.171Z,17
2017-08-02T01:21:12.120Z,17.03
2017-08-02T01:22:12.105Z,17.02
2017-08-02T01:23:11.785Z,17.05
2017-08-02T01:24:12.067Z,17
2017-08-02T01:25:12.033Z,17.02
2017-08-02T01:26:12.020Z,17.02
2017-08-02T01:27:26.613Z,17.02
2017-08-02T01:28:11.977Z,17.05
2017-08-02T01:29:11.969Z,17.06
2017-08-02T01:30:11.941Z,17.05
2017-08-02T01:31:11.913Z,17.06
2017-08-02T01:32:11.903Z,17.02
2017-08-02T01:33:11.875Z,16.96
2017-08-02T01:34:11.604Z,17.02
2017-08-02T01:35:11.852Z,16.96
2017-08-02T01:36:11.820Z,16.99
2017-08-02T01:37:11.798Z,16.92
2017-08-02T01:38:11.775Z,17
2017-08-02T01:39:11.753Z,17.02
2017-08-02T01:40:11.733Z,17.02
2017-08-02T01:41:11.770Z,17.02
2017-08-02T01:42:11.698Z,17.05
2017-08-02T01:43:11.721Z,16.99
2017-08-02T01:44:11.653Z,17
2017-08-02T01:45:11.632Z,16.95
2017-08-02T01:46:11.614Z,16.99
2017-08-02T01:47:11.642Z,16.96
2017-08-02T01:48:11.570Z,16.92
2017-08-02T01:49:11.556Z,16.9
2017-08-02T01:50:11.536Z,16.91
2017-08-02T01:51:11.515Z,16.96
2017-08-02T01:52:11.492Z,16.91
2017-08-02T01:53:11.471Z,16.92
2017-08-02T01:54:11.473Z,16.88
2017-08-02T01:55:11.440Z,16.92
2017-08-02T01:56:11.408Z,17.07
2017-08-02T01:57:11.393Z,16.9
2017-08-02T01:58:11.365Z,17.02
2017-08-02T01:59:11.348Z,16.99
2017-08-02T02:00:11.324Z,16.96
2017-08-02T02:01:11.304Z,16.95
2017-08-02T02:02:11.284Z,16.95
2017-08-02T02:03:10.969Z,16.95
2017-08-02T02:04:11.247Z,16.9
2017-08-02T02:05:11.222Z,16.96
2017-08-02T02:06:11.199Z,16.96
2017-08-02T02:07:11.185Z,16.88
2017-08-02T02:08:11.174Z,16.84
2017-08-02T02:09:11.141Z,16.91
2017-08-02T02:10:11.124Z,16.9
2017-08-02T02:11:11.107Z,16.88
2017-08-02T02:12:11.082Z,16.87
2017-08-02T02:13:11.062Z,16.91
2017-08-02T02:14:11.043Z,16.84
2017-08-02T02:15:11.020Z,16.84
2017-08-02T02:16:10.693Z,16.87
2017-08-02T02:17:10.978Z,16.87
2017-08-02T02:18:10.958Z,16.82
2017-08-02T02:19:10.942Z,16.87
2017-08-02T02:20:10.613Z,16.87
2017-08-02T02:21:10.897Z,16.88
2017-08-02T02:22:10.883Z,16.87
2017-08-02T02:23:10.854Z,16.88
2017-08-02T02:24:10.529Z,16.9
2017-08-02T02:25:10.816Z,16.91
2017-08-02T02:26:10.795Z,16.9
2017-08-02T02:27:10.785Z,16.88
2017-08-02T02:28:10.752Z,16.84
2017-08-02T02:29:10.730Z,16.87
2017-08-02T02:30:10.410Z,16.8
2017-08-02T02:31:10.395Z,16.9
2017-08-02T02:32:10.374Z,16.75
2017-08-02T02:33:10.651Z,16.85
2017-08-02T02:34:10.627Z,16.9
2017-08-02T02:35:10.606Z,16.9
2017-08-02T02:36:10.591Z,16.9
2017-08-02T02:37:10.571Z,16.8
2017-08-02T02:38:10.545Z,16.85
2017-08-02T02:39:10.534Z,16.88
2017-08-02T02:40:10.507Z,16.81
2017-08-02T02:41:10.542Z,16.81
2017-08-02T02:42:10.481Z,16.85
2017-08-02T02:43:10.448Z,16.88
2017-08-02T02:44:10.423Z,16.92
2017-08-02T02:45:10.408Z,16.95
2017-08-02T02:46:10.391Z,16.96
2017-08-02T02:47:10.371Z,16.88
2017-08-02T02:48:10.358Z,16.91
2017-08-02T02:49:10.321Z,16.95
2017-08-02T02:50:10.316Z,16.85
2017-08-02T02:51:10.288Z,16.85
2017-08-02T02:52:09.959Z,16.81
2017-08-02T02:53:10.251Z,16.87
2017-08-02T02:54:10.233Z,16.91
2017-08-02T02:55:10.214Z,16.98
2017-08-02T02:56:10.182Z,16.88
2017-08-02T02:57:10.167Z,16.95
2017-08-02T02:58:10.138Z,16.84
2017-08-02T02:59:10.114Z,16.9
2017-08-02T03:00:10.107Z,16.85
2017-08-02T03:01:10.074Z,16.85
2017-08-02T03:02:10.057Z,16.85
2017-08-02T03:03:10.036Z,16.82
2017-08-02T03:04:10.017Z,16.91
2017-08-02T03:05:09.996Z,16.8
2017-08-02T03:06:09.671Z,16.92
2017-08-02T03:07:09.965Z,16.81
2017-08-02T03:08:09.936Z,16.85
2017-08-02T03:09:10.020Z,16.88
2017-08-02T03:10:09.900Z,16.88
2017-08-02T03:11:09.874Z,16.96
2017-08-02T03:12:09.855Z,16.85
2017-08-02T03:13:09.830Z,16.91
2017-08-02T03:14:09.807Z,16.92
2017-08-02T03:15:09.808Z,16.85
2017-08-02T03:16:09.472Z,16.9
2017-08-02T03:17:09.801Z,16.85
2017-08-02T03:18:09.728Z,16.85
2017-08-02T03:19:09.706Z,16.91
2017-08-02T03:20:09.704Z,16.88
2017-08-02T03:21:09.674Z,16.84
2017-08-02T03:22:09.653Z,16.85
2017-08-02T03:23:09.634Z,16.91
2017-08-02T03:24:09.603Z,16.8
2017-08-02T03:25:09.590Z,16.96
2017-08-02T03:26:09.574Z,16.88
2017-08-02T03:27:09.549Z,16.91
2017-08-02T03:28:09.534Z,16.75
2017-08-02T03:29:09.492Z,16.72
2017-08-02T03:30:09.488Z,16.75
2017-08-02T03:31:09.476Z,16.82
2017-08-02T03:32:09.435Z,16.78
2017-08-02T03:33:09.433Z,16.72
2017-08-02T03:34:09.402Z,16.75
2017-08-02T03:35:09.586Z,16.75
2017-08-02T03:36:09.562Z,16.72
2017-08-02T03:37:09.440Z,16.7
2017-08-02T03:38:09.621Z,16.75
2017-08-02T03:39:09.302Z,16.72
2017-08-02T03:40:09.285Z,16.69
2017-08-02T03:41:09.416Z,16.7
2017-08-02T03:42:09.242Z,16.66
2017-08-02T03:43:09.225Z,16.7
2017-08-02T03:44:09.198Z,16.7
2017-08-02T03:45:09.178Z,16.7
2017-08-02T03:46:09.150Z,16.67
2017-08-02T03:47:09.143Z,16.69
2017-08-02T03:48:09.116Z,16.7
2017-08-02T03:49:09.101Z,16.67
2017-08-02T03:50:08.777Z,16.63
2017-08-02T03:51:09.049Z,16.63
2017-08-02T03:52:09.084Z,16.66
2017-08-02T03:53:09.023Z,16.66
2017-08-02T03:54:09.000Z,16.7
2017-08-02T03:55:08.981Z,16.67
2017-08-02T03:56:08.954Z,16.62
2017-08-02T03:57:08.925Z,16.66
2017-08-02T03:58:08.912Z,16.63
2017-08-02T03:59:08.891Z,16.63
2017-08-02T04:00:08.629Z,16.69
2017-08-02T04:01:08.853Z,16.65
2017-08-02T04:02:08.824Z,16.6
2017-08-02T04:03:08.507Z,16.59
2017-08-02T04:04:08.487Z,16.59
2017-08-02T04:05:08.772Z,16.62
2017-08-02T04:06:08.751Z,16.6
2017-08-02T04:07:08.719Z,16.52
2017-08-02T04:08:08.705Z,16.55
2017-08-02T04:09:08.685Z,16.55
2017-08-02T04:10:08.666Z,16.6
2017-08-02T04:11:08.643Z,16.52
2017-08-02T04:12:08.628Z,16.6
2017-08-02T04:13:08.305Z,16.52
2017-08-02T04:14:08.578Z,16.55
2017-08-02T04:15:08.581Z,16.59
2017-08-02T04:16:08.553Z,16.57
2017-08-02T04:17:08.526Z,16.62
2017-08-02T04:18:08.501Z,16.6
2017-08-02T04:19:08.582Z,16.59
2017-08-02T04:20:08.460Z,16.63
2017-08-02T04:21:08.441Z,16.65
2017-08-02T04:22:08.463Z,16.65
2017-08-02T04:23:08.391Z,16.66
2017-08-02T04:24:08.409Z,16.6
2017-08-02T04:25:08.356Z,16.6
2017-08-02T04:26:08.597Z,16.65
2017-08-02T04:27:08.325Z,16.69
2017-08-02T04:28:08.305Z,16.65
2017-08-02T04:29:08.287Z,16.67
2017-08-02T04:30:08.256Z,16.7
2017-08-02T04:31:08.231Z,16.78
2017-08-02T04:32:08.217Z,16.81
2017-08-02T04:33:08.206Z,16.73
2017-08-02T04:34:08.167Z,16.9
2017-08-02T04:35:08.152Z,16.88
2017-08-02T04:36:08.131Z,16.88
2017-08-02T04:37:07.815Z,16.85
2017-08-02T04:38:08.086Z,16.92
2017-08-02T04:39:08.069Z,16.99
2017-08-02T04:40:08.048Z,16.99
2017-08-02T04:41:07.777Z,16.95
2017-08-02T04:42:08.261Z,16.9
2017-08-02T04:43:07.988Z,16.95
2017-08-02T04:44:07.967Z,17.05
2017-08-02T04:45:07.956Z,16.99
2017-08-02T04:46:07.626Z,17
2017-08-02T04:47:07.914Z,17.06
2017-08-02T04:48:07.888Z,17.12
2017-08-02T04:49:07.865Z,17.09
2017-08-02T04:50:07.608Z,17.15
2017-08-02T04:51:07.836Z,17.24
2017-08-02T04:52:07.805Z,17.32
2017-08-02T04:53:07.796Z,17.25
2017-08-02T04:54:07.777Z,17.36
2017-08-02T04:55:07.447Z,17.38
2017-08-02T04:56:07.741Z,17.51
2017-08-02T04:57:07.723Z,17.68
2017-08-02T04:58:07.686Z,17.71
2017-08-02T04:59:07.665Z,17.73
2017-08-02T05:00:07.645Z,17.76
2017-08-02T05:01:07.636Z,17.71
2017-08-02T05:02:07.620Z,17.66
2017-08-02T05:03:07.589Z,17.62
2017-08-02T05:04:07.571Z,17.54
2017-08-02T05:05:07.247Z,17.53
2017-08-02T05:06:07.522Z,17.45
2017-08-02T05:07:07.207Z,17.42
2017-08-02T05:08:07.482Z,17.32
2017-08-02T05:09:07.489Z,17.33
2017-08-02T05:10:07.445Z,17.3
2017-08-02T05:11:07.422Z,17.28
2017-08-02T05:12:07.401Z,17.27
2017-08-02T05:13:07.084Z,17.33
2017-08-02T05:14:07.422Z,17.32
2017-08-02T05:15:07.351Z,17.3
2017-08-02T05:16:07.321Z,17.33
2017-08-02T05:17:07.331Z,17.35
2017-08-02T05:18:07.334Z,17.3
2017-08-02T05:19:07.268Z,17.27
2017-08-02T05:20:07.302Z,17.22
2017-08-02T05:21:07.217Z,17.25
2017-08-02T05:22:06.899Z,17.25
2017-08-02T05:23:07.187Z,17.28
2017-08-02T05:24:06.864Z,17.35
2017-08-02T05:25:07.155Z,17.38
2017-08-02T05:26:07.124Z,17.38
2017-08-02T05:27:07.101Z,17.4
2017-08-02T05:28:07.081Z,17.39
2017-08-02T05:29:07.062Z,17.42
2017-08-02T05:30:06.451Z,17.33
2017-08-02T05:31:07.026Z,17.32
2017-08-02T05:32:07.005Z,17.4
2017-08-02T05:33:06.681Z,17.4
2017-08-02T05:34:06.967Z,17.43
2017-08-02T05:35:06.943Z,17.49
2017-08-02T05:36:06.922Z,17.53
2017-08-02T05:37:06.905Z,17.54
2017-08-02T05:38:06.879Z,17.62
2017-08-02T05:39:06.568Z,17.57
2017-08-02T05:40:06.847Z,17.73
2017-08-02T05:41:06.829Z,17.71
2017-08-02T05:42:06.807Z,17.83
2017-08-02T05:43:06.779Z,17.79
2017-08-02T05:44:06.756Z,17.81
2017-08-02T05:45:06.750Z,17.8
2017-08-02T05:46:06.728Z,17.83
2017-08-02T05:47:06.400Z,18.01
2017-08-02T05:48:06.683Z,18.01
2017-08-02T05:49:06.672Z,18.01
2017-08-02T05:50:06.340Z,18.05
2017-08-02T05:51:06.624Z,18.1
2017-08-02T05:52:06.306Z,18.09
2017-08-02T05:53:06.602Z,18.11
2017-08-02T05:54:06.560Z,18.21
2017-08-02T05:55:06.539Z,18.31
2017-08-02T05:56:06.526Z,18.28
2017-08-02T05:57:06.511Z,18.34
2017-08-02T05:58:06.484Z,18.36
2017-08-02T05:59:06.464Z,18.35
2017-08-02T06:00:06.451Z,18.39
2017-08-02T06:01:06.432Z,18.53
2017-08-02T06:02:06.414Z,18.54
2017-08-02T06:03:06.393Z,18.59
2017-08-02T06:04:06.367Z,18.54
2017-08-02T06:05:06.345Z,18.5
2017-08-02T06:06:06.330Z,18.54
2017-08-02T06:07:06.306Z,18.56
2017-08-02T06:08:06.293Z,18.65
2017-08-02T06:09:06.268Z,18.72
2017-08-02T06:10:06.257Z,18.69
2017-08-02T06:11:06.231Z,18.74
2017-08-02T06:12:06.213Z,18.78
2017-08-02T06:13:06.191Z,18.83
2017-08-02T06:14:06.171Z,18.86
2017-08-02T06:15:06.155Z,18.96
2017-08-02T06:16:06.157Z,18.97
2017-08-02T06:17:06.120Z,18.96
2017-08-02T06:18:06.102Z,18.99
2017-08-02T06:19:06.072Z,18.97
2017-08-02T06:20:06.054Z,19.02
2017-08-02T06:21:05.744Z,19.02
2017-08-02T06:22:06.024Z,19.09
2017-08-02T06:23:06.001Z,19.07
2017-08-02T06:24:06.039Z,19.07
2017-08-02T06:25:05.966Z,19.09
2017-08-02T06:26:05.951Z,19.15
2017-08-02T06:27:05.978Z,19.09
2017-08-02T06:28:05.923Z,19.17
2017-08-02T06:29:05.887Z,19.15
2017-08-02T06:30:05.865Z,19.21
2017-08-02T06:31:05.587Z,19.16
2017-08-02T06:32:05.828Z,19.24
2017-08-02T06:33:05.806Z,19.31
2017-08-02T06:34:05.793Z,19.34
2017-08-02T06:35:05.770Z,19.42
2017-08-02T06:36:05.755Z,19.43
2017-08-02T06:37:05.736Z,19.45
2017-08-02T06:38:05.709Z,19.46
2017-08-02T06:39:05.695Z,19.55
2017-08-02T06:40:05.675Z,19.52
2017-08-02T06:41:05.757Z,19.62
2017-08-02T06:42:05.831Z,19.62
2017-08-02T06:43:20.224Z,19.71
2017-08-02T06:44:05.341Z,19.75
2017-08-02T06:45:05.659Z,19.98
2017-08-02T06:46:05.568Z,20.04
2017-08-02T06:47:05.550Z,20.19
2017-08-02T06:48:05.525Z,20.34
2017-08-02T06:49:05.562Z,20.33
2017-08-02T06:50:05.586Z,20.37
2017-08-02T06:51:05.519Z,20.35
2017-08-02T06:52:05.452Z,20.34
2017-08-02T06:53:05.434Z,20.26
2017-08-02T06:54:05.415Z,20.3
2017-08-02T06:55:05.098Z,20.22
2017-08-02T06:56:05.376Z,20.17
2017-08-02T06:57:05.369Z,20.15
2017-08-02T06:58:05.345Z,20.2
2017-08-02T06:59:05.321Z,20.19
2017-08-02T07:00:05.307Z,20.25
2017-08-02T07:01:05.283Z,20.16
2017-08-02T07:02:04.969Z,20.19
2017-08-02T07:03:04.948Z,20.22
2017-08-02T07:04:05.230Z,20.34
2017-08-02T07:05:05.260Z,20.38
2017-08-02T07:06:05.195Z,20.5
2017-08-02T07:07:05.177Z,20.48
2017-08-02T07:08:05.154Z,20.57
2017-08-02T07:09:05.138Z,20.66
2017-08-02T07:10:05.118Z,20.75
2017-08-02T07:11:05.105Z,20.71
2017-08-02T07:12:05.086Z,20.82
2017-08-02T07:13:05.098Z,20.71
2017-08-02T07:14:05.051Z,20.76
2017-08-02T07:15:05.023Z,20.75
2017-08-02T07:16:05.014Z,20.64
2017-08-02T07:17:04.993Z,20.71
2017-08-02T07:18:04.971Z,20.72
2017-08-02T07:19:04.966Z,20.64
2017-08-02T07:20:04.938Z,20.71
2017-08-02T07:21:04.922Z,20.69
2017-08-02T07:22:04.899Z,20.88
2017-08-02T07:23:04.885Z,20.93
2017-08-02T07:24:04.870Z,21.06
2017-08-02T07:25:04.852Z,21.03
2017-08-02T07:26:04.528Z,21.16
2017-08-02T07:27:04.813Z,21.12
2017-08-02T07:28:04.791Z,21.06
2017-08-02T07:29:04.780Z,21.01
2017-08-02T07:30:04.769Z,21.06
2017-08-02T07:31:04.743Z,21.12
2017-08-02T07:32:05.028Z,21.46
2017-08-02T07:33:04.707Z,21.83
2017-08-02T07:34:04.690Z,22.41
2017-08-02T07:35:04.669Z,22.94
2017-08-02T07:36:04.661Z,23.41
2017-08-02T07:37:04.639Z,23.62
2017-08-02T07:38:04.822Z,23.63
2017-08-02T07:39:04.608Z,23.59
2017-08-02T07:40:04.293Z,23.67
2017-08-02T07:41:04.576Z,23.56
2017-08-02T07:42:04.564Z,23.59
2017-08-02T07:43:04.551Z,23.52
2017-08-02T07:44:04.533Z,23.49
2017-08-02T07:45:04.506Z,23.39
2017-08-02T07:46:04.493Z,23.42
2017-08-02T07:47:04.484Z,23.37
2017-08-02T07:48:04.466Z,23.38
2017-08-02T07:49:04.446Z,23.35
2017-08-02T07:50:04.430Z,23.38
2017-08-02T07:51:04.409Z,23.41
2017-08-02T07:52:04.394Z,23.47
2017-08-02T07:53:04.479Z,23.56
2017-08-02T07:54:04.372Z,23.57
2017-08-02T07:55:04.358Z,23.54
2017-08-02T07:56:04.339Z,23.67
2017-08-02T07:57:04.318Z,23.68
2017-08-02T07:58:04.303Z,23.71
2017-08-02T07:59:04.292Z,23.87
2017-08-02T08:00:04.280Z,23.97
2017-08-02T08:01:04.258Z,23.97
2017-08-02T08:02:04.244Z,24.02
2017-08-02T08:03:04.225Z,23.97
2017-08-02T08:04:04.224Z,23.89
2017-08-02T08:05:04.205Z,23.79
2017-08-02T08:06:03.884Z,23.75
2017-08-02T08:07:04.162Z,23.78
2017-08-02T08:08:04.148Z,23.77
2017-08-02T08:09:04.139Z,23.71
2017-08-02T08:10:03.823Z,23.74
2017-08-02T08:11:04.111Z,23.79
2017-08-02T08:12:04.093Z,23.71
2017-08-02T08:13:03.771Z,23.69
2017-08-02T08:14:04.070Z,23.56
2017-08-02T08:15:04.050Z,23.5
2017-08-02T08:16:04.032Z,23.5
2017-08-02T08:17:04.010Z,23.42
2017-08-02T08:18:04.060Z,23.41
2017-08-02T08:19:03.980Z,23.44
2017-08-02T08:20:03.963Z,23.49
2017-08-02T08:21:03.964Z,23.52
2017-08-02T08:22:03.932Z,23.6
2017-08-02T08:23:03.919Z,23.63
2017-08-02T08:24:03.606Z,23.81
2017-08-02T08:25:03.595Z,23.94
2017-08-02T08:26:03.871Z,24.04
2017-08-02T08:27:03.616Z,23.97
2017-08-02T08:28:03.842Z,24
2017-08-02T08:29:03.526Z,24.08
2017-08-02T08:30:03.812Z,24.15
2017-08-02T08:31:03.509Z,24.15
2017-08-02T08:32:03.782Z,24.21
2017-08-02T08:33:03.470Z,24.36
2017-08-02T08:34:03.749Z,24.6
2017-08-02T08:35:03.789Z,24.87
2017-08-02T08:36:03.723Z,24.98
2017-08-02T08:37:03.706Z,25.02
2017-08-02T08:38:03.688Z,25.2
2017-08-02T08:39:03.681Z,25.35
2017-08-02T08:40:03.666Z,25.54
2017-08-02T08:41:03.699Z,25.81
2017-08-02T08:42:03.631Z,25.78
2017-08-02T08:43:03.615Z,25.93
2017-08-02T08:44:03.304Z,25.9
2017-08-02T08:45:03.590Z,26.01
2017-08-02T08:46:03.576Z,25.91
2017-08-02T08:47:03.561Z,25.71
2017-08-02T08:48:03.548Z,25.82
2017-08-02T08:49:03.532Z,25.89
2017-08-02T08:50:03.564Z,25.86
2017-08-02T08:51:03.508Z,25.75
2017-08-02T08:52:03.491Z,25.54
2017-08-02T08:53:03.474Z,25.46
2017-08-02T08:54:03.479Z,25.46
2017-08-02T08:55:03.154Z,25.3
2017-08-02T08:56:03.451Z,25.24
2017-08-02T08:57:03.422Z,25.08
2017-08-02T08:58:03.410Z,24.98
2017-08-02T08:59:03.387Z,24.92
2017-08-02T09:00:03.386Z,24.84
2017-08-02T09:01:03.062Z,24.74
2017-08-02T09:02:03.348Z,24.63
2017-08-02T09:03:03.339Z,24.48
2017-08-02T09:04:03.331Z,24.39
2017-08-02T09:05:03.306Z,24.27
2017-08-02T09:06:03.298Z,24.24
2017-08-02T09:07:03.339Z,24.15
2017-08-02T09:08:03.262Z,24.09
2017-08-02T09:09:03.259Z,24.11
2017-08-02T09:10:03.237Z,24.06
2017-08-02T09:11:02.914Z,24.08
2017-08-02T09:12:03.197Z,24.06
2017-08-02T09:13:03.189Z,24.16
2017-08-02T09:14:03.167Z,24.16
2017-08-02T09:15:03.150Z,24.21
2017-08-02T09:16:02.840Z,24.26
2017-08-02T09:17:02.829Z,24.36
2017-08-02T09:18:03.109Z,24.48
2017-08-02T09:19:03.096Z,24.52
2017-08-02T09:20:03.078Z,24.66
2017-08-02T09:21:03.309Z,24.7
2017-08-02T09:22:03.047Z,24.79
2017-08-02T09:23:02.790Z,24.75
2017-08-02T09:24:03.019Z,24.75
2017-08-02T09:25:03.003Z,24.74
2017-08-02T09:26:02.983Z,24.63
2017-08-02T09:27:02.980Z,24.45
2017-08-02T09:28:02.348Z,24.21
2017-08-02T09:29:02.943Z,24.04
2017-08-02T09:30:03.228Z,23.97
2017-08-02T09:31:02.922Z,24
2017-08-02T09:32:02.894Z,23.94
2017-08-02T09:33:02.876Z,24.08
2017-08-02T09:34:02.858Z,24.15
2017-08-02T09:35:02.544Z,24.42
2017-08-02T09:36:02.842Z,24.59
2017-08-02T09:37:02.816Z,24.98
2017-08-02T09:38:03.067Z,25.22
2017-08-02T09:39:02.797Z,25.66
2017-08-02T09:40:02.770Z,26.04
2017-08-02T09:41:02.774Z,26.57
2017-08-02T09:42:02.441Z,26.91
2017-08-02T09:43:02.730Z,27.13
2017-08-02T09:44:02.715Z,27.16
2017-08-02T09:45:02.708Z,26.97
2017-08-02T09:46:02.689Z,26.72
2017-08-02T09:47:02.688Z,26.34
2017-08-02T09:48:02.663Z,26.13
2017-08-02T09:49:02.647Z,25.9
2017-08-02T09:50:02.646Z,25.74
2017-08-02T09:51:02.324Z,25.51
2017-08-02T09:52:02.609Z,25.26
2017-08-02T09:53:02.291Z,25.26
2017-08-02T09:54:02.585Z,25.42
2017-08-02T09:55:02.575Z,25.57
2017-08-02T09:56:02.552Z,25.66
2017-08-02T09:57:02.567Z,25.83
2017-08-02T09:58:02.217Z,26.06
2017-08-02T09:59:02.514Z,26.27
2017-08-02T10:00:02.501Z,26.66
2017-08-02T10:01:02.569Z,27.09
2017-08-02T10:02:02.474Z,27.45
2017-08-02T10:03:02.452Z,27.84
2017-08-02T10:04:02.444Z,28.3
2017-08-02T10:05:02.435Z,28.62
2017-08-02T10:06:02.518Z,28.89
2017-08-02T10:07:02.117Z,29.11
2017-08-02T10:08:02.405Z,29.07
2017-08-02T10:09:02.394Z,29.12
2017-08-02T10:10:02.451Z,29.03
2017-08-02T10:11:02.366Z,28.91
2017-08-02T10:12:02.362Z,28.95
2017-08-02T10:13:02.355Z,28.92
2017-08-02T10:14:02.343Z,28.87
2017-08-02T10:15:02.335Z,28.62
2017-08-02T10:16:02.322Z,28.23
2017-08-02T10:17:02.311Z,28.01
2017-08-02T10:18:02.301Z,28.02
2017-08-02T10:19:02.289Z,28.13
2017-08-02T10:20:02.313Z,28.21
2017-08-02T10:21:02.265Z,28.02
2017-08-02T10:22:01.960Z,27.84
2017-08-02T10:23:01.949Z,27.52
2017-08-02T10:24:02.240Z,27.35
2017-08-02T10:25:02.223Z,27.21
2017-08-02T10:26:01.912Z,27.28
2017-08-02T10:27:02.203Z,27.28
2017-08-02T10:28:02.199Z,27.23
2017-08-02T10:29:02.189Z,27.68
2017-08-02T10:30:02.180Z,28.03
2017-08-02T10:31:01.907Z,28.14
2017-08-02T10:32:02.063Z,28.24
2017-08-02T10:33:01.840Z,28.24
2017-08-02T10:34:02.134Z,28.32
2017-08-02T10:35:02.422Z,28.3
2017-08-02T10:36:02.117Z,28.28
2017-08-02T10:37:01.810Z,28.24
2017-08-02T10:38:01.787Z,28.24
2017-08-02T10:39:01.787Z,28.02
2017-08-02T10:40:02.069Z,27.69
2017-08-02T10:41:01.757Z,27.43
2017-08-02T10:42:02.105Z,27.23
2017-08-02T10:43:02.040Z,27.16
2017-08-02T10:44:02.027Z,27.02
2017-08-02T10:45:02.020Z,26.84
2017-08-02T10:46:02.009Z,26.72
2017-08-02T10:47:01.990Z,26.66
2017-08-02T10:48:01.983Z,26.71
2017-08-02T10:49:01.983Z,26.59
2017-08-02T10:50:01.971Z,26.5
2017-08-02T10:51:01.939Z,26.28
2017-08-02T10:52:01.939Z,26.08
2017-08-02T10:53:01.924Z,25.9
2017-08-02T10:54:01.905Z,25.79
2017-08-02T10:55:01.908Z,25.69
2017-08-02T10:56:01.877Z,25.59
2017-08-02T10:57:01.870Z,25.51
2017-08-02T10:58:01.853Z,25.67
2017-08-02T10:59:01.839Z,25.59
2017-08-02T11:00:01.825Z,25.61
2017-08-02T11:01:01.869Z,25.67
2017-08-02T11:02:01.796Z,25.79
2017-08-02T11:03:01.803Z,25.83
2017-08-02T11:04:01.771Z,25.85
2017-08-02T11:05:01.805Z,26.01
2017-08-02T11:06:01.996Z,26.21
2017-08-02T11:07:01.741Z,26.44
2017-08-02T11:08:01.723Z,26.65
2017-08-02T11:09:01.765Z,26.81
2017-08-02T11:10:01.700Z,26.79
2017-08-02T11:11:01.688Z,26.78
2017-08-02T11:12:01.890Z,26.66
2017-08-02T11:13:01.656Z,26.53
2017-08-02T11:14:01.646Z,26.44
2017-08-02T11:15:01.633Z,26.27
2017-08-02T11:16:01.620Z,26.16
2017-08-02T11:17:01.615Z,26.16
2017-08-02T11:18:01.586Z,26.11
2017-08-02T11:19:01.583Z,26.01
2017-08-02T11:20:01.614Z,26.04
2017-08-02T11:21:01.555Z,25.98
2017-08-02T11:22:01.542Z,26.03
2017-08-02T11:23:01.526Z,26.17
2017-08-02T11:24:01.513Z,26.17
2017-08-02T11:25:01.494Z,26.17
2017-08-02T11:26:01.483Z,26.17
2017-08-02T11:27:01.469Z,26.28
2017-08-02T11:28:01.456Z,26.29
2017-08-02T11:29:01.449Z,26.36
2017-08-02T11:30:01.435Z,26.34
2017-08-02T11:31:01.416Z,26.35
2017-08-02T11:32:01.406Z,26.31
2017-08-02T11:33:01.406Z,26.23
2017-08-02T11:34:01.379Z,26.12
2017-08-02T11:35:01.371Z,26
2017-08-02T11:36:01.351Z,25.94
2017-08-02T11:37:01.355Z,26
2017-08-02T11:38:01.269Z,26.06
2017-08-02T11:39:01.308Z,26.13
2017-08-02T11:40:01.327Z,26.01
2017-08-02T11:41:01.286Z,25.98
2017-08-02T11:42:01.469Z,26.04
2017-08-02T11:43:01.253Z,26.17
2017-08-02T11:44:00.651Z,26.24
2017-08-02T11:45:00.948Z,26.41
2017-08-02T11:46:15.815Z,26.44
2017-08-02T11:47:01.198Z,26.31
2017-08-02T11:48:01.410Z,26.24
2017-08-02T11:49:01.399Z,26.12
2017-08-02T11:50:01.219Z,26.03
2017-08-02T11:51:00.840Z,25.9
2017-08-02T11:52:01.134Z,25.82
2017-08-02T11:53:00.819Z,25.83
2017-08-02T11:54:01.304Z,25.75
2017-08-02T11:55:01.088Z,25.6
2017-08-02T11:56:01.068Z,25.66
2017-08-02T11:57:01.053Z,25.76
2017-08-02T11:58:01.047Z,25.74
2017-08-02T11:59:01.023Z,25.85
2017-08-02T12:00:00.715Z,25.9
2017-08-02T12:01:00.703Z,25.94
2017-08-02T12:02:01.037Z,26.08
2017-08-02T12:03:01.195Z,26.21
2017-08-02T12:04:00.958Z,26.28
2017-08-02T12:05:00.941Z,26.29
2017-08-02T12:06:00.930Z,26.38
2017-08-02T12:07:00.906Z,26.32
2017-08-02T12:08:00.748Z,26.44
2017-08-02T12:09:00.633Z,26.56
2017-08-02T12:10:00.867Z,26.66
2017-08-02T12:11:15.466Z,26.51
2017-08-02T12:12:00.847Z,26.47
2017-08-02T12:13:01.035Z,26.49
2017-08-02T12:14:00.812Z,26.49
2017-08-02T12:15:00.695Z,26.47
2017-08-02T12:16:00.789Z,26.42
2017-08-02T12:17:00.766Z,26.32
2017-08-02T12:18:00.811Z,26.36
2017-08-02T12:19:15.349Z,26.41
2017-08-02T12:20:00.735Z,26.49
2017-08-02T12:21:00.758Z,26.6
2017-08-02T12:22:00.702Z,26.57
2017-08-02T12:23:00.755Z,26.61
2017-08-02T12:24:01.723Z,26.68
2017-08-02T12:25:00.368Z,26.81
2017-08-02T12:26:00.647Z,26.78
2017-08-02T12:27:00.701Z,26.75
2017-08-02T12:28:00.363Z,26.84
2017-08-02T12:29:00.649Z,26.72
2017-08-02T12:30:00.590Z,26.68
2017-08-02T12:31:00.320Z,26.66
2017-08-02T12:32:00.559Z,26.6
2017-08-02T12:33:00.605Z,26.5
2017-08-02T12:34:00.578Z,26.41
2017-08-02T12:35:00.518Z,26.31
2017-08-02T12:36:00.508Z,26.2
2017-08-02T12:37:00.490Z,26.27
2017-08-02T12:38:00.469Z,26.34
2017-08-02T12:39:00.463Z,26.39
2017-08-02T12:40:00.144Z,26.36
2017-08-02T12:41:00.423Z,26.35
2017-08-02T12:42:00.464Z,26.32
2017-08-02T12:43:00.399Z,26.31
2017-08-02T12:44:00.632Z,26.29
2017-08-02T12:45:00.068Z,26.32
2017-08-02T12:46:00.354Z,26.28
2017-08-02T12:47:00.389Z,26.31
2017-08-02T12:48:00.375Z,26.29
2017-08-02T12:49:00.008Z,26.16
2017-08-02T12:50:00.352Z,26.21
2017-08-02T12:51:00.278Z,26.2
2017-08-02T12:52:00.265Z,26.04
2017-08-02T12:53:00.502Z,26.08
2017-08-02T12:54:00.241Z,26.04
2017-08-02T12:55:00.218Z,26
2017-08-02T12:56:00.199Z,25.94